createdAt,value
2019-04-26T00:04:50.586Z,21.00
2019-04-26T00:09:58.744Z,21.00
2019-04-26T00:15:39.102Z,21.00
2019-04-26T00:20:45.263Z,21.00
2019-04-26T00:25:51.459Z,21.00
2019-04-26T00:30:57.651Z,21.00
2019-04-26T00:36:03.620Z,21.00
2019-04-26T00:41:10.220Z,21.00
2019-04-26T00:46:16.904Z,21.00
2019-04-26T00:51:23.458Z,21.00
2019-04-26T00:56:29.687Z,21.00
2019-04-26T01:01:38.737Z,21.00
2019-04-26T01:06:46.555Z,21.00
2019-04-26T01:11:52.663Z,21.00
2019-04-26T01:16:58.623Z,21.00
2019-04-26T01:22:08.182Z,21.00
2019-04-26T01:27:14.549Z,21.00
2019-04-26T01:32:21.982Z,21.00
2019-04-26T01:37:28.878Z,21.00
2019-04-26T01:42:50.646Z,21.00
2019-04-26T01:47:59.327Z,21.00
2019-04-26T01:53:05.524Z,21.00
2019-04-26T01:58:11.835Z,21.00
2019-04-26T02:03:25.684Z,21.00
2019-04-26T02:08:32.450Z,21.00
2019-04-26T02:13:38.731Z,21.00
2019-04-26T02:18:44.815Z,21.00
2019-04-26T02:24:16.140Z,21.00
2019-04-26T02:29:26.982Z,21.10
2019-04-26T02:34:36.714Z,21.00
2019-04-26T02:39:42.991Z,21.00
2019-04-26T02:45:18.758Z,21.00
2019-04-26T02:50:31.172Z,21.00
2019-04-26T02:55:58.248Z,21.00
2019-04-26T03:01:04.243Z,21.00
2019-04-26T03:06:11.507Z,21.00
2019-04-26T03:11:19.785Z,21.00
2019-04-26T03:16:50.848Z,21.00
2019-04-26T03:22:55.190Z,21.00
2019-04-26T03:28:43.661Z,21.00
2019-04-26T03:34:12.146Z,21.00
2019-04-26T03:39:44.497Z,21.00
2019-04-26T03:45:06.087Z,21.00
2019-04-26T03:50:15.069Z,21.00
2019-04-26T03:56:15.111Z,21.00
2019-04-26T04:01:22.251Z,21.00
2019-04-26T04:06:31.329Z,21.00
2019-04-26T04:11:48.872Z,21.00
2019-04-26T04:17:24.180Z,21.10
2019-04-26T04:22:34.552Z,21.00
2019-04-26T04:27:45.943Z,21.10
2019-04-26T04:33:12.857Z,21.00
2019-04-26T04:39:11.179Z,21.00
2019-04-26T04:44:16.943Z,21.10
2019-04-26T04:49:42.398Z,21.10
2019-04-26T04:55:04.459Z,21.10
2019-04-26T05:00:08.126Z,21.10
2019-04-26T05:05:39.786Z,21.00
2019-04-26T05:11:02.600Z,21.10
2019-04-26T05:16:48.582Z,21.10
2019-04-26T05:22:28.363Z,21.10
2019-04-26T05:28:07.160Z,21.10
2019-04-26T05:33:26.052Z,21.10
2019-04-26T05:39:06.131Z,21.10
2019-04-26T05:44:32.529Z,21.00
2019-04-26T05:50:28.060Z,21.10
2019-04-26T05:56:10.511Z,21.10
2019-04-26T06:02:01.088Z,21.10
2019-04-26T06:07:31.246Z,21.10
2019-04-26T06:13:03.615Z,21.10
2019-04-26T06:18:40.970Z,21.10
2019-04-26T06:24:15.589Z,21.10
2019-04-26T06:29:27.075Z,21.10
2019-04-26T06:35:20.530Z,21.10
2019-04-26T06:40:47.235Z,21.10
2019-04-26T06:46:47.370Z,21.00
2019-04-26T06:51:54.326Z,21.00
2019-04-26T06:57:37.711Z,21.00
2019-04-26T07:02:58.901Z,21.00
2019-04-26T07:08:26.025Z,21.00
2019-04-26T07:14:00.583Z,21.00
2019-04-26T07:19:17.756Z,21.00
2019-04-26T07:25:20.829Z,21.00
2019-04-26T07:31:14.344Z,21.00
2019-04-26T07:37:02.995Z,21.00
2019-04-26T07:42:51.497Z,21.10
2019-04-26T07:48:21.894Z,21.10
2019-04-26T07:53:44.019Z,21.10
2019-04-26T07:59:27.972Z,21.10
2019-04-26T08:04:37.778Z,21.10
2019-04-26T08:09:59.590Z,21.10
2019-04-26T08:15:24.984Z,21.10
2019-04-26T08:20:43.547Z,21.10
2019-04-26T08:25:50.336Z,21.20
2019-04-26T08:30:56.660Z,21.20
2019-04-26T08:36:02.720Z,21.20
2019-04-26T08:41:09.845Z,21.20
2019-04-26T08:46:45.413Z,21.20
2019-04-26T08:51:52.181Z,21.20
2019-04-26T08:57:06.379Z,21.20
2019-04-26T09:02:44.212Z,21.20
2019-04-26T09:07:53.425Z,21.20
2019-04-26T09:12:58.379Z,21.20
2019-04-26T09:18:06.237Z,21.20
2019-04-26T09:23:39.922Z,21.30
2019-04-26T09:28:58.339Z,21.30
2019-04-26T09:34:10.513Z,21.30
2019-04-26T09:39:15.782Z,21.30
2019-04-26T09:44:43.919Z,21.30
2019-04-26T09:49:57.258Z,21.30
2019-04-26T09:55:03.444Z,21.30
2019-04-26T10:00:10.247Z,21.30
2019-04-26T10:05:22.278Z,21.30
2019-04-26T10:10:30.921Z,21.30
2019-04-26T10:15:48.342Z,21.40
2019-04-26T10:20:54.702Z,21.40
2019-04-26T10:26:00.857Z,21.40
2019-04-26T10:31:06.999Z,21.30
2019-04-26T10:36:13.067Z,21.40
2019-04-26T10:41:19.187Z,21.40
2019-04-26T10:46:28.411Z,21.40
2019-04-26T10:51:41.866Z,21.50
2019-04-26T10:57:14.890Z,21.50
2019-04-26T11:02:21.750Z,21.50
2019-04-26T11:07:27.707Z,21.40
2019-04-26T11:12:33.823Z,21.50
2019-04-26T11:17:39.910Z,21.50
2019-04-26T11:22:46.176Z,21.50
2019-04-26T11:27:52.909Z,21.50
2019-04-26T11:32:58.845Z,21.50
2019-04-26T11:38:05.037Z,21.50
2019-04-26T11:43:11.030Z,21.50
2019-04-26T11:48:17.242Z,21.50
2019-04-26T11:53:23.090Z,21.50
2019-04-26T11:58:28.961Z,21.50
2019-04-26T12:03:34.871Z,21.50
2019-04-26T12:08:54.095Z,21.50
2019-04-26T12:14:19.734Z,21.60
2019-04-26T12:19:19.554Z,21.50
2019-04-26T12:24:30.000Z,21.60
2019-04-26T12:29:33.410Z,21.50
2019-04-26T12:34:40.433Z,21.60
2019-04-26T12:39:46.603Z,21.60
2019-04-26T12:45:12.225Z,21.60
2019-04-26T12:50:19.590Z,21.60
2019-04-26T12:55:26.065Z,21.60
2019-04-26T13:00:33.022Z,21.60
2019-04-26T13:05:39.753Z,21.60
2019-04-26T13:11:07.374Z,21.70
2019-04-26T13:16:37.702Z,21.60
2019-04-26T13:21:43.634Z,21.70
2019-04-26T13:26:50.253Z,21.70
2019-04-26T13:31:56.308Z,21.70
2019-04-26T13:37:02.993Z,21.70
2019-04-26T13:42:09.737Z,21.70
2019-04-26T13:47:44.275Z,21.80
2019-04-26T13:52:51.173Z,21.80
2019-04-26T13:57:57.508Z,21.80
2019-04-26T14:03:03.918Z,21.80
2019-04-26T14:08:10.079Z,21.80
2019-04-26T14:13:16.242Z,21.90
2019-04-26T14:18:22.184Z,21.80
2019-04-26T14:23:37.066Z,21.80
2019-04-26T14:28:43.310Z,21.80
2019-04-26T14:33:49.322Z,21.80
2019-04-26T14:39:05.366Z,21.80
2019-04-26T14:44:14.854Z,21.90
2019-04-26T14:49:10.907Z,21.80
2019-04-26T14:54:16.676Z,21.80
2019-04-26T14:59:44.391Z,21.80
2019-04-26T15:05:09.326Z,21.80
2019-04-26T15:10:16.474Z,21.80
2019-04-26T15:15:27.025Z,21.80
2019-04-26T15:20:30.159Z,21.80
2019-04-26T15:25:36.880Z,21.90
2019-04-26T15:30:46.616Z,21.90
2019-04-26T15:35:52.123Z,21.90
2019-04-26T15:41:33.210Z,21.90
2019-04-26T15:46:57.571Z,21.90
2019-04-26T15:52:03.397Z,21.90
2019-04-26T15:57:09.231Z,21.90
2019-04-26T16:02:18.430Z,21.80
2019-04-26T16:07:27.810Z,21.90
2019-04-26T16:12:30.245Z,21.90
2019-04-26T16:17:40.234Z,21.90
2019-04-26T16:22:45.018Z,21.80
2019-04-26T16:27:52.494Z,21.80
2019-04-26T16:33:03.888Z,21.90
2019-04-26T16:38:27.368Z,21.80
2019-04-26T16:43:38.739Z,21.80
2019-04-26T16:48:44.218Z,21.80
2019-04-26T16:54:03.728Z,21.80
2019-04-26T16:58:55.424Z,21.80
2019-04-26T17:04:03.969Z,21.80
2019-04-26T17:09:09.623Z,21.80
2019-04-26T17:14:15.480Z,21.80
2019-04-26T17:19:22.782Z,21.80
2019-04-26T17:24:46.565Z,21.80
2019-04-26T17:29:52.942Z,21.80
2019-04-26T17:35:03.594Z,21.80
2019-04-26T17:40:06.952Z,21.80
2019-04-26T17:45:12.770Z,21.80
2019-04-26T17:50:20.439Z,21.70
2019-04-26T17:55:26.083Z,21.80
2019-04-26T18:00:45.573Z,21.70
2019-04-26T18:05:50.062Z,21.70
2019-04-26T18:10:46.979Z,21.70
2019-04-26T18:15:52.908Z,21.70
2019-04-26T18:21:33.502Z,21.70
2019-04-26T18:26:39.490Z,21.70
2019-04-26T18:31:45.651Z,21.70
2019-04-26T18:36:51.948Z,21.70
2019-04-26T18:41:58.285Z,21.70
2019-04-26T18:47:27.588Z,21.70
2019-04-26T18:52:33.372Z,21.70
2019-04-26T18:57:39.276Z,21.70
2019-04-26T19:02:48.463Z,21.70
2019-04-26T19:07:52.690Z,21.70
2019-04-26T19:13:03.560Z,21.70
2019-04-26T19:18:13.828Z,21.70
2019-04-26T19:23:22.804Z,21.70
2019-04-26T19:28:27.085Z,21.70
2019-04-26T19:33:32.928Z,21.70
2019-04-26T19:38:38.702Z,21.70
2019-04-26T19:43:46.224Z,21.70
2019-04-26T19:49:10.326Z,21.70
2019-04-26T19:54:38.358Z,21.60
2019-04-26T19:59:42.922Z,21.60
2019-04-26T20:04:49.043Z,21.70
2019-04-26T20:09:56.357Z,21.70
2019-04-26T20:15:02.672Z,21.70
2019-04-26T20:20:18.926Z,21.70
2019-04-26T20:25:16.628Z,21.70
2019-04-26T20:30:51.505Z,21.70
2019-04-26T20:36:01.442Z,21.70
2019-04-26T20:41:05.433Z,21.70
2019-04-26T20:46:15.192Z,21.70
2019-04-26T20:51:19.159Z,21.70
2019-04-26T20:56:25.266Z,21.70
2019-04-26T21:01:32.109Z,21.70
2019-04-26T21:06:39.441Z,21.70
2019-04-26T21:11:45.975Z,21.70
2019-04-26T21:16:51.756Z,21.70
2019-04-26T21:21:57.822Z,21.70
2019-04-26T21:27:25.890Z,21.70
2019-04-26T21:32:51.503Z,21.70
2019-04-26T21:38:12.911Z,21.70
2019-04-26T21:43:18.807Z,21.70
2019-04-26T21:48:24.919Z,21.70
2019-04-26T21:53:30.911Z,21.70
2019-04-26T21:58:37.127Z,21.70
2019-04-26T22:03:47.322Z,21.70
2019-04-26T22:09:04.419Z,21.70
2019-04-26T22:14:20.222Z,21.70
2019-04-26T22:19:35.517Z,21.70
2019-04-26T22:24:43.403Z,21.70
2019-04-26T22:29:51.835Z,21.70
2019-04-26T22:34:57.683Z,21.70
2019-04-26T22:40:03.880Z,21.70
2019-04-26T22:45:27.632Z,21.70
2019-04-26T22:50:33.530Z,21.70
2019-04-26T22:55:40.746Z,21.70
2019-04-26T23:00:47.821Z,21.70
2019-04-26T23:05:55.071Z,21.70
2019-04-26T23:11:02.417Z,21.70
2019-04-26T23:16:40.478Z,21.70
2019-04-26T23:21:52.792Z,21.70
2019-04-26T23:26:54.501Z,21.70
2019-04-26T23:32:00.701Z,21.70
2019-04-26T23:37:06.834Z,21.70
2019-04-26T23:42:16.475Z,21.70
2019-04-26T23:47:23.171Z,21.70
2019-04-26T23:52:28.455Z,21.70
2019-04-26T23:57:36.247Z,21.70
